Country
Station

 

Weather  for  Millinocket, Millinocket Municipal Airport  -  United States    United States

  
12 °C (54 °F)
    
 
 

Current METAR for Millinocket, Millinocket Municipal Airport is :

KMLT 191532Z AUTO 04007KT 6SM BR BKN011 OVC014 12/09 A3006 RMK AO2 T01170094 TSNO

 

This is a report for Millinocket, Millinocket Municipal Airport - United States.
 
The report was made 8 minutes ago, at 15:32 UTC .
The wind was blowing at a speed of 3.6 meters per second (8.1 miles per hour) from northeast (040°).
 
The temperature was 12 °C (54 °F), with a dew-point at 9 °C (48 °F).
The atmospheric pressure was 1018 hPa (30.06 inHg).
The relative humidity was 81.9%.
 
There were broken clouds at a height of 335 meters (1100 feet). The sky was overcast from a height of 427 meter (1400 feet)
 
The overall visibility was 9.7 kilometers (6.0 miles).
 
Currently mist.

 
 
 
 

Country :   A   B   C   D   E   F   G   H   I   J   K   L   M   N   O   P   Q   R   S   T   U   V   W   Y   Z

 

Site Info  |  Disclaimer  |  Credits  |  Privacy
Contact us  |  Add to favorites
© 2013-2018 METARs - All rights reserved